الصفحة الرئيسية
METAR-TAF:

METAR-TAF

مطار :

Ipiales, كولومبيا

دائرة عرض: 00-49N, خط طول: 077-38W, ارتفاع: 2961 متر

مراقبة الطقس الحالي

تاريخ ووقت الإصدار 1ساعة و 7 دقيقة قبل الساعة 18:00UTC
ريح 10 عقدة من الشرق/الشمال الشرقي
درجة الحرارة 18°درجة مئوية
الرطوبة 68%
ضغط 1029 hPa
الرؤية 10 كم أو أكثر
غيوم متفرقة على ارتفاع 1800 قدم

METAR: SKIP 041800Z 07010KT 9999 SCT018 18/12 Q1029

زمن: 14:07 (19:07 UTC)


TAF: مفقودة

أرصاد الطقس والتوقعات من أكثر من 4000 مطار (تقارير الطقس للمطار METAR والتنبؤ بالطقس بالمطارTAF).

المحطات المتاحة هي النقط الصفراء والحمراء على الخريطة.

حرك المؤشر فوق النقطة لمعرفة اسم المحطة.

ثم انقر لمعرفة أرصاد وتوقعات الطقس.

لتغيير الخارطة: اضغط على الأزرار الخضراء مع رمز الصليب الأسود للتكبير. على الزر الأخضر مع شرطة للتصغير، أو على الأسهم الخضراء للخرائط المجاورة.


METAR-TAF: